Aérodrome :
LOGIN :

S'inscrire | Disclaimer

   EN    FR    IT 

 










Légende :    VFR   VFR Marginal   IFR   IFR Intensif   IFR Très Intensif
Visi : 
Plafond : 
>= 8 km
>= 3000ft
5 à 8 km
1000 à 3000 ft
1500m à 5 km
500 à 1000 ft
800 à 1500m
200 à 500 ft
< 800m
< 200 ft
Symboles :   Orages  Brouillard  Fortes neiges  Fortes précipitations  Vent > 20 kt
SIGMETs :   Divers  Orages  Givrage  Turbulence  Onde Orograph.  Cendres Volcan.






- Altitude de l'aérodrome : 407 ft


EGDM - MoD Boscombe Down Amesbury

DERNIER METAR :
  • 131620Z AUTO 29007KT 9999 OVC046/// 17/11 Q1013

METARs EXPIRÉS :
  • 131550Z AUTO 25010KT 9999 OVC029/// 17/11 Q1013
  • 131520Z AUTO 21009KT 9999 FEW042/// BKN093/// 19/11 Q1013
  • 131450Z AUTO 22010KT 9999 FEW026/// BKN090/// 18/11 Q1013
  • 131420Z AUTO 18009KT 9999 BKN065/// BKN083/// 18/11 Q1013
  • 131350Z AUTO 19010KT 9999 OVC052/// 17/12 Q1013
  • 131320Z AUTO 20006KT 9999 FEW033/// OVC059/// 17/10 Q1013
  • 131250Z AUTO 25004KT 9999 SCT032/// SCT045/// 17/10 Q1014
  • 131220Z AUTO 28003KT 9999 BKN048/// BKN063/// 17/09 Q1014
  • 131150Z AUTO 34008KT 9999 BKN032/// SCT067/// 18/10 Q1014

Prévision TAF périmée.



MET'MAP, la Météo Aéronautique d'un coup d'oeil ! - Copyright ORBIFLY Décembre 2007 - Disclaimer

ORBIFLY MET'MAP TEAM :

Programmation & Développement : Alexandra Zaïnal
Sur une idée originale de : Baudouin d'Aumeries
Soutien technique & logistique : Manuel Goepfert
Assistance : Marc-Olivier Méhu




SOURCES & CREDITS :

   NOAA